sensor_id;sensor_type;location;lat;lon;timestamp;P1;durP1;ratioP1;P2;durP2;ratioP2
15077;SDS011;7638;49.760;8.646;2023-02-01T00:00:11;7.07;;;3.00;;
15077;SDS011;7638;49.760;8.646;2023-02-01T00:02:37;5.70;;;2.47;;
15077;SDS011;7638;49.760;8.646;2023-02-01T00:05:06;6.57;;;3.30;;
15077;SDS011;7638;49.760;8.646;2023-02-01T00:07:32;3.33;;;2.67;;
15077;SDS011;7638;49.760;8.646;2023-02-01T00:09:58;6.27;;;2.47;;
15077;SDS011;7638;49.760;8.646;2023-02-01T00:12:24;2.90;;;2.70;;
15077;SDS011;7638;49.760;8.646;2023-02-01T00:14:50;3.10;;;2.80;;
15077;SDS011;7638;49.760;8.646;2023-02-01T00:17:17;3.57;;;2.57;;
15077;SDS011;7638;49.760;8.646;2023-02-01T00:19:43;3.90;;;3.03;;
15077;SDS011;7638;49.760;8.646;2023-02-01T00:22:09;3.67;;;2.53;;
15077;SDS011;7638;49.760;8.646;2023-02-01T00:24:35;4.87;;;3.20;;
15077;SDS011;7638;49.760;8.646;2023-02-01T00:27:01;4.93;;;2.63;;
15077;SDS011;7638;49.760;8.646;2023-02-01T00:29:27;4.70;;;2.90;;
15077;SDS011;7638;49.760;8.646;2023-02-01T00:31:53;3.03;;;2.73;;
15077;SDS011;7638;49.760;8.646;2023-02-01T00:34:19;3.20;;;2.67;;
15077;SDS011;7638;49.760;8.646;2023-02-01T00:36:45;2.83;;;2.50;;
15077;SDS011;7638;49.760;8.646;2023-02-01T00:39:12;3.57;;;2.83;;
15077;SDS011;7638;49.760;8.646;2023-02-01T00:41:38;3.97;;;3.10;;
15077;SDS011;7638;49.760;8.646;2023-02-01T00:44:05;4.80;;;2.83;;
15077;SDS011;7638;49.760;8.646;2023-02-01T00:46:31;4.10;;;3.20;;
15077;SDS011;7638;49.760;8.646;2023-02-01T00:48:57;4.33;;;2.90;;
15077;SDS011;7638;49.760;8.646;2023-02-01T00:51:24;5.27;;;3.07;;
15077;SDS011;7638;49.760;8.646;2023-02-01T00:53:51;4.73;;;2.57;;
15077;SDS011;7638;49.760;8.646;2023-02-01T00:56:17;4.23;;;3.67;;
15077;SDS011;7638;49.760;8.646;2023-02-01T00:58:43;3.90;;;3.00;;
15077;SDS011;7638;49.760;8.646;2023-02-01T01:01:14;6.13;;;3.20;;
15077;SDS011;7638;49.760;8.646;2023-02-01T01:03:41;3.70;;;2.77;;
15077;SDS011;7638;49.760;8.646;2023-02-01T01:06:09;5.20;;;3.27;;
15077;SDS011;7638;49.760;8.646;2023-02-01T01:08:35;3.60;;;2.80;;
15077;SDS011;7638;49.760;8.646;2023-02-01T01:11:08;8.23;;;3.33;;
15077;SDS011;7638;49.760;8.646;2023-02-01T01:13:35;3.83;;;2.40;;
15077;SDS011;7638;49.760;8.646;2023-02-01T01:16:01;5.30;;;3.20;;
15077;SDS011;7638;49.760;8.646;2023-02-01T01:18:28;3.17;;;2.67;;
15077;SDS011;7638;49.760;8.646;2023-02-01T01:20:54;3.73;;;3.00;;
15077;SDS011;7638;49.760;8.646;2023-02-01T01:23:21;6.60;;;3.40;;
15077;SDS011;7638;49.760;8.646;2023-02-01T01:25:47;4.80;;;3.20;;
15077;SDS011;7638;49.760;8.646;2023-02-01T01:28:13;3.67;;;2.80;;
15077;SDS011;7638;49.760;8.646;2023-02-01T01:30:39;6.00;;;3.40;;
15077;SDS011;7638;49.760;8.646;2023-02-01T01:33:05;7.67;;;3.50;;
15077;SDS011;7638;49.760;8.646;2023-02-01T01:35:31;3.87;;;2.70;;
15077;SDS011;7638;49.760;8.646;2023-02-01T01:37:58;4.07;;;3.10;;
15077;SDS011;7638;49.760;8.646;2023-02-01T01:40:24;8.00;;;2.80;;
15077;SDS011;7638;49.760;8.646;2023-02-01T01:42:50;3.17;;;2.90;;
15077;SDS011;7638;49.760;8.646;2023-02-01T01:45:26;9.67;;;3.50;;
15077;SDS011;7638;49.760;8.646;2023-02-01T01:47:53;4.83;;;3.37;;
15077;SDS011;7638;49.760;8.646;2023-02-01T01:50:24;4.30;;;2.77;;
15077;SDS011;7638;49.760;8.646;2023-02-01T01:52:51;8.57;;;3.90;;
15077;SDS011;7638;49.760;8.646;2023-02-01T01:55:18;5.50;;;3.30;;
15077;SDS011;7638;49.760;8.646;2023-02-01T01:57:47;8.00;;;3.23;;
15077;SDS011;7638;49.760;8.646;2023-02-01T02:00:16;4.50;;;3.47;;
15077;SDS011;7638;49.760;8.646;2023-02-01T02:02:44;6.87;;;3.30;;
15077;SDS011;7638;49.760;8.646;2023-02-01T02:05:11;7.40;;;4.10;;
15077;SDS011;7638;49.760;8.646;2023-02-01T02:07:39;5.37;;;2.87;;
15077;SDS011;7638;49.760;8.646;2023-02-01T02:10:06;3.27;;;2.90;;
15077;SDS011;7638;49.760;8.646;2023-02-01T02:12:35;5.30;;;3.00;;
15077;SDS011;7638;49.760;8.646;2023-02-01T02:15:03;3.23;;;2.93;;
15077;SDS011;7638;49.760;8.646;2023-02-01T02:22:48;5.53;;;3.20;;
15077;SDS011;7638;49.760;8.646;2023-02-01T02:30:49;6.13;;;3.00;;
15077;SDS011;7638;49.760;8.646;2023-02-01T02:43:35;3.87;;;3.23;;
15077;SDS011;7638;49.760;8.646;2023-02-01T02:46:29;5.43;;;3.10;;
15077;SDS011;7638;49.760;8.646;2023-02-01T02:49:18;4.00;;;2.83;;
15077;SDS011;7638;49.760;8.646;2023-02-01T02:51:47;5.93;;;3.33;;
15077;SDS011;7638;49.760;8.646;2023-02-01T02:54:34;4.93;;;3.27;;
15077;SDS011;7638;49.760;8.646;2023-02-01T02:57:12;4.67;;;3.57;;
15077;SDS011;7638;49.760;8.646;2023-02-01T02:59:58;7.07;;;3.17;;
15077;SDS011;7638;49.760;8.646;2023-02-01T03:02:45;7.00;;;3.00;;
15077;SDS011;7638;49.760;8.646;2023-02-01T03:05:35;6.20;;;3.17;;
15077;SDS011;7638;49.760;8.646;2023-02-01T03:13:04;4.00;;;3.30;;
15077;SDS011;7638;49.760;8.646;2023-02-01T03:17:57;6.53;;;3.60;;
15077;SDS011;7638;49.760;8.646;2023-02-01T03:20:24;8.40;;;4.00;;
15077;SDS011;7638;49.760;8.646;2023-02-01T03:22:50;4.93;;;3.43;;
15077;SDS011;7638;49.760;8.646;2023-02-01T03:25:27;4.37;;;3.40;;
15077;SDS011;7638;49.760;8.646;2023-02-01T03:30:28;8.50;;;4.20;;
15077;SDS011;7638;49.760;8.646;2023-02-01T03:32:55;4.00;;;3.40;;
15077;SDS011;7638;49.760;8.646;2023-02-01T03:35:26;3.43;;;2.87;;
15077;SDS011;7638;49.760;8.646;2023-02-01T03:37:54;5.73;;;3.33;;
15077;SDS011;7638;49.760;8.646;2023-02-01T03:40:22;5.20;;;3.80;;
15077;SDS011;7638;49.760;8.646;2023-02-01T03:42:49;9.80;;;3.83;;
15077;SDS011;7638;49.760;8.646;2023-02-01T03:45:24;6.17;;;3.97;;
15077;SDS011;7638;49.760;8.646;2023-02-01T03:47:52;8.20;;;4.00;;
15077;SDS011;7638;49.760;8.646;2023-02-01T03:50:20;4.60;;;3.87;;
15077;SDS011;7638;49.760;8.646;2023-02-01T03:52:58;5.87;;;4.10;;
15077;SDS011;7638;49.760;8.646;2023-02-01T03:55:25;6.07;;;3.63;;
15077;SDS011;7638;49.760;8.646;2023-02-01T03:58:01;5.57;;;3.53;;
15077;SDS011;7638;49.760;8.646;2023-02-01T04:00:28;4.80;;;3.80;;
15077;SDS011;7638;49.760;8.646;2023-02-01T04:02:54;12.90;;;4.00;;
15077;SDS011;7638;49.760;8.646;2023-02-01T04:05:21;7.27;;;3.80;;
15077;SDS011;7638;49.760;8.646;2023-02-01T04:07:47;9.87;;;4.13;;
15077;SDS011;7638;49.760;8.646;2023-02-01T04:10:13;5.57;;;3.80;;
15077;SDS011;7638;49.760;8.646;2023-02-01T04:12:39;7.27;;;4.07;;
15077;SDS011;7638;49.760;8.646;2023-02-01T04:15:05;7.70;;;3.73;;
15077;SDS011;7638;49.760;8.646;2023-02-01T04:17:32;8.50;;;4.17;;
15077;SDS011;7638;49.760;8.646;2023-02-01T04:19:58;6.63;;;3.63;;
15077;SDS011;7638;49.760;8.646;2023-02-01T04:22:24;6.77;;;4.00;;
15077;SDS011;7638;49.760;8.646;2023-02-01T04:24:50;8.90;;;4.13;;
15077;SDS011;7638;49.760;8.646;2023-02-01T04:27:16;7.57;;;4.67;;
15077;SDS011;7638;49.760;8.646;2023-02-01T04:29:42;7.87;;;4.37;;
15077;SDS011;7638;49.760;8.646;2023-02-01T04:32:10;7.27;;;4.63;;
15077;SDS011;7638;49.760;8.646;2023-02-01T04:34:36;7.43;;;4.30;;
15077;SDS011;7638;49.760;8.646;2023-02-01T04:37:02;6.73;;;3.73;;
15077;SDS011;7638;49.760;8.646;2023-02-01T04:39:28;5.40;;;3.97;;
15077;SDS011;7638;49.760;8.646;2023-02-01T04:41:54;4.27;;;3.00;;
15077;SDS011;7638;49.760;8.646;2023-02-01T04:44:20;8.30;;;3.43;;
15077;SDS011;7638;49.760;8.646;2023-02-01T04:46:46;7.97;;;3.90;;
15077;SDS011;7638;49.760;8.646;2023-02-01T04:49:13;5.67;;;3.90;;
15077;SDS011;7638;49.760;8.646;2023-02-01T04:51:39;5.23;;;3.10;;
15077;SDS011;7638;49.760;8.646;2023-02-01T04:54:05;7.33;;;3.37;;
15077;SDS011;7638;49.760;8.646;2023-02-01T04:56:32;6.83;;;2.90;;
15077;SDS011;7638;49.760;8.646;2023-02-01T04:58:59;8.53;;;3.47;;
15077;SDS011;7638;49.760;8.646;2023-02-01T05:01:27;7.67;;;2.97;;
15077;SDS011;7638;49.760;8.646;2023-02-01T05:03:53;7.07;;;2.90;;
15077;SDS011;7638;49.760;8.646;2023-02-01T05:06:19;5.73;;;3.10;;
15077;SDS011;7638;49.760;8.646;2023-02-01T05:08:45;5.07;;;3.00;;
15077;SDS011;7638;49.760;8.646;2023-02-01T05:11:11;2.93;;;2.47;;
15077;SDS011;7638;49.760;8.646;2023-02-01T05:13:56;5.80;;;2.73;;
15077;SDS011;7638;49.760;8.646;2023-02-01T05:16:22;6.50;;;3.17;;
15077;SDS011;7638;49.760;8.646;2023-02-01T05:18:48;5.43;;;3.43;;
15077;SDS011;7638;49.760;8.646;2023-02-01T05:21:14;6.00;;;2.77;;
15077;SDS011;7638;49.760;8.646;2023-02-01T05:23:40;9.53;;;3.77;;
15077;SDS011;7638;49.760;8.646;2023-02-01T05:26:25;5.80;;;2.70;;
15077;SDS011;7638;49.760;8.646;2023-02-01T05:28:51;9.17;;;3.70;;
15077;SDS011;7638;49.760;8.646;2023-02-01T05:31:17;8.87;;;3.83;;
15077;SDS011;7638;49.760;8.646;2023-02-01T05:33:43;6.90;;;3.00;;
15077;SDS011;7638;49.760;8.646;2023-02-01T05:36:09;6.33;;;2.77;;
15077;SDS011;7638;49.760;8.646;2023-02-01T05:38:35;7.47;;;2.63;;
15077;SDS011;7638;49.760;8.646;2023-02-01T05:41:01;5.43;;;2.17;;
15077;SDS011;7638;49.760;8.646;2023-02-01T05:43:27;4.13;;;2.03;;
15077;SDS011;7638;49.760;8.646;2023-02-01T05:45:53;4.50;;;1.80;;
15077;SDS011;7638;49.760;8.646;2023-02-01T05:48:19;1.50;;;1.40;;
15077;SDS011;7638;49.760;8.646;2023-02-01T05:50:45;6.63;;;1.63;;
15077;SDS011;7638;49.760;8.646;2023-02-01T05:53:11;2.40;;;1.67;;
15077;SDS011;7638;49.760;8.646;2023-02-01T05:55:37;2.43;;;1.13;;
15077;SDS011;7638;49.760;8.646;2023-02-01T05:58:04;1.90;;;1.50;;
15077;SDS011;7638;49.760;8.646;2023-02-01T06:00:30;4.23;;;1.50;;
15077;SDS011;7638;49.760;8.646;2023-02-01T06:02:56;4.30;;;1.20;;
15077;SDS011;7638;49.760;8.646;2023-02-01T06:05:22;5.83;;;1.50;;
15077;SDS011;7638;49.760;8.646;2023-02-01T06:07:48;1.97;;;1.70;;
15077;SDS011;7638;49.760;8.646;2023-02-01T06:10:15;3.93;;;2.23;;
15077;SDS011;7638;49.760;8.646;2023-02-01T06:12:41;3.57;;;1.80;;
15077;SDS011;7638;49.760;8.646;2023-02-01T06:15:07;2.50;;;1.70;;
15077;SDS011;7638;49.760;8.646;2023-02-01T06:17:34;3.13;;;1.90;;
15077;SDS011;7638;49.760;8.646;2023-02-01T06:20:00;3.30;;;2.00;;
15077;SDS011;7638;49.760;8.646;2023-02-01T06:22:26;5.50;;;2.60;;
15077;SDS011;7638;49.760;8.646;2023-02-01T06:24:52;3.03;;;2.20;;
15077;SDS011;7638;49.760;8.646;2023-02-01T06:27:18;4.53;;;2.03;;
15077;SDS011;7638;49.760;8.646;2023-02-01T06:29:43;5.63;;;2.53;;
15077;SDS011;7638;49.760;8.646;2023-02-01T06:32:10;2.97;;;2.47;;
15077;SDS011;7638;49.760;8.646;2023-02-01T06:34:36;4.57;;;2.37;;
15077;SDS011;7638;49.760;8.646;2023-02-01T06:37:04;4.93;;;3.13;;
15077;SDS011;7638;49.760;8.646;2023-02-01T06:39:30;7.33;;;2.77;;
15077;SDS011;7638;49.760;8.646;2023-02-01T06:41:56;7.33;;;3.17;;
15077;SDS011;7638;49.760;8.646;2023-02-01T06:44:22;7.20;;;3.87;;
15077;SDS011;7638;49.760;8.646;2023-02-01T06:46:48;5.13;;;3.20;;
15077;SDS011;7638;49.760;8.646;2023-02-01T06:49:14;6.80;;;3.50;;
15077;SDS011;7638;49.760;8.646;2023-02-01T06:51:40;9.33;;;4.07;;
15077;SDS011;7638;49.760;8.646;2023-02-01T06:54:06;4.97;;;3.30;;
15077;SDS011;7638;49.760;8.646;2023-02-01T06:56:32;9.73;;;3.63;;
15077;SDS011;7638;49.760;8.646;2023-02-01T06:58:58;8.33;;;4.13;;
15077;SDS011;7638;49.760;8.646;2023-02-01T07:01:25;6.10;;;4.07;;
15077;SDS011;7638;49.760;8.646;2023-02-01T07:03:51;9.20;;;4.30;;
15077;SDS011;7638;49.760;8.646;2023-02-01T07:06:17;9.63;;;4.30;;
15077;SDS011;7638;49.760;8.646;2023-02-01T07:08:44;9.50;;;4.23;;
15077;SDS011;7638;49.760;8.646;2023-02-01T07:11:11;11.40;;;4.13;;
15077;SDS011;7638;49.760;8.646;2023-02-01T07:13:37;7.07;;;4.30;;
15077;SDS011;7638;49.760;8.646;2023-02-01T07:16:04;8.73;;;4.50;;
15077;SDS011;7638;49.760;8.646;2023-02-01T07:18:31;7.10;;;4.50;;
15077;SDS011;7638;49.760;8.646;2023-02-01T07:20:57;9.03;;;3.37;;
15077;SDS011;7638;49.760;8.646;2023-02-01T07:23:23;6.43;;;3.47;;
15077;SDS011;7638;49.760;8.646;2023-02-01T07:25:53;6.97;;;3.50;;
15077;SDS011;7638;49.760;8.646;2023-02-01T07:28:19;10.10;;;3.87;;
15077;SDS011;7638;49.760;8.646;2023-02-01T07:30:45;8.17;;;3.93;;
15077;SDS011;7638;49.760;8.646;2023-02-01T07:33:16;10.27;;;4.37;;
15077;SDS011;7638;49.760;8.646;2023-02-01T07:35:42;8.63;;;4.13;;
15077;SDS011;7638;49.760;8.646;2023-02-01T07:38:08;5.00;;;3.53;;
15077;SDS011;7638;49.760;8.646;2023-02-01T07:40:34;7.70;;;3.83;;
15077;SDS011;7638;49.760;8.646;2023-02-01T07:43:00;8.30;;;3.10;;
15077;SDS011;7638;49.760;8.646;2023-02-01T07:45:26;5.20;;;2.83;;
15077;SDS011;7638;49.760;8.646;2023-02-01T07:47:52;7.50;;;3.07;;
15077;SDS011;7638;49.760;8.646;2023-02-01T07:50:18;8.03;;;3.00;;
15077;SDS011;7638;49.760;8.646;2023-02-01T07:52:44;11.27;;;3.33;;
15077;SDS011;7638;49.760;8.646;2023-02-01T07:55:10;9.67;;;2.93;;
15077;SDS011;7638;49.760;8.646;2023-02-01T07:57:36;11.87;;;3.43;;
15077;SDS011;7638;49.760;8.646;2023-02-01T08:00:03;7.80;;;2.57;;
15077;SDS011;7638;49.760;8.646;2023-02-01T08:02:48;9.20;;;2.50;;
15077;SDS011;7638;49.760;8.646;2023-02-01T08:05:14;12.53;;;2.40;;
15077;SDS011;7638;49.760;8.646;2023-02-01T08:07:40;7.00;;;3.07;;
15077;SDS011;7638;49.760;8.646;2023-02-01T08:10:06;5.37;;;2.10;;
15077;SDS011;7638;49.760;8.646;2023-02-01T08:12:35;5.30;;;2.53;;
15077;SDS011;7638;49.760;8.646;2023-02-01T08:15:02;8.70;;;2.93;;
15077;SDS011;7638;49.760;8.646;2023-02-01T08:17:28;8.37;;;2.30;;
15077;SDS011;7638;49.760;8.646;2023-02-01T08:19:55;6.13;;;2.53;;
15077;SDS011;7638;49.760;8.646;2023-02-01T08:22:21;7.13;;;2.67;;
15077;SDS011;7638;49.760;8.646;2023-02-01T08:24:47;9.07;;;4.50;;
15077;SDS011;7638;49.760;8.646;2023-02-01T08:27:13;9.57;;;3.00;;
15077;SDS011;7638;49.760;8.646;2023-02-01T08:29:39;7.20;;;2.60;;
15077;SDS011;7638;49.760;8.646;2023-02-01T08:32:05;11.73;;;2.67;;
15077;SDS011;7638;49.760;8.646;2023-02-01T08:34:31;6.50;;;2.80;;
15077;SDS011;7638;49.760;8.646;2023-02-01T08:36:57;6.37;;;2.80;;
15077;SDS011;7638;49.760;8.646;2023-02-01T08:39:24;9.27;;;2.70;;
15077;SDS011;7638;49.760;8.646;2023-02-01T08:41:50;6.77;;;2.87;;
15077;SDS011;7638;49.760;8.646;2023-02-01T08:44:35;8.77;;;2.60;;
15077;SDS011;7638;49.760;8.646;2023-02-01T08:47:01;8.83;;;2.70;;
15077;SDS011;7638;49.760;8.646;2023-02-01T08:49:27;18.53;;;2.90;;
15077;SDS011;7638;49.760;8.646;2023-02-01T08:51:53;8.17;;;2.83;;
15077;SDS011;7638;49.760;8.646;2023-02-01T08:54:20;15.97;;;3.67;;
15077;SDS011;7638;49.760;8.646;2023-02-01T08:56:46;10.03;;;2.50;;
15077;SDS011;7638;49.760;8.646;2023-02-01T08:59:12;5.83;;;2.67;;
15077;SDS011;7638;49.760;8.646;2023-02-01T09:01:41;14.20;;;2.80;;
15077;SDS011;7638;49.760;8.646;2023-02-01T09:04:07;8.17;;;2.93;;
15077;SDS011;7638;49.760;8.646;2023-02-01T09:06:33;7.57;;;2.83;;
15077;SDS011;7638;49.760;8.646;2023-02-01T09:08:59;6.17;;;2.80;;
15077;SDS011;7638;49.760;8.646;2023-02-01T09:11:25;5.97;;;3.10;;
15077;SDS011;7638;49.760;8.646;2023-02-01T09:13:51;10.77;;;2.93;;
15077;SDS011;7638;49.760;8.646;2023-02-01T09:16:17;8.73;;;2.77;;
15077;SDS011;7638;49.760;8.646;2023-02-01T09:18:43;8.60;;;3.50;;
15077;SDS011;7638;49.760;8.646;2023-02-01T09:21:09;6.47;;;2.53;;
15077;SDS011;7638;49.760;8.646;2023-02-01T09:23:35;10.67;;;3.47;;
15077;SDS011;7638;49.760;8.646;2023-02-01T09:26:02;8.37;;;3.10;;
15077;SDS011;7638;49.760;8.646;2023-02-01T09:28:28;10.20;;;3.33;;
15077;SDS011;7638;49.760;8.646;2023-02-01T09:30:57;7.83;;;3.07;;
15077;SDS011;7638;49.760;8.646;2023-02-01T09:33:24;8.93;;;3.03;;
15077;SDS011;7638;49.760;8.646;2023-02-01T09:36:01;8.77;;;3.27;;
15077;SDS011;7638;49.760;8.646;2023-02-01T09:38:27;11.40;;;3.60;;
15077;SDS011;7638;49.760;8.646;2023-02-01T09:40:54;11.23;;;3.40;;
15077;SDS011;7638;49.760;8.646;2023-02-01T09:48:35;12.03;;;3.60;;
15077;SDS011;7638;49.760;8.646;2023-02-01T09:51:04;10.77;;;3.20;;
15077;SDS011;7638;49.760;8.646;2023-02-01T09:53:37;15.90;;;4.50;;
15077;SDS011;7638;49.760;8.646;2023-02-01T09:56:05;8.50;;;3.67;;
15077;SDS011;7638;49.760;8.646;2023-02-01T09:58:33;9.93;;;3.10;;
15077;SDS011;7638;49.760;8.646;2023-02-01T10:01:01;13.67;;;3.17;;
15077;SDS011;7638;49.760;8.646;2023-02-01T10:03:29;11.27;;;2.50;;
15077;SDS011;7638;49.760;8.646;2023-02-01T10:10:59;7.93;;;3.93;;
15077;SDS011;7638;49.760;8.646;2023-02-01T10:19:04;14.23;;;3.97;;
15077;SDS011;7638;49.760;8.646;2023-02-01T10:21:42;10.83;;;3.20;;
15077;SDS011;7638;49.760;8.646;2023-02-01T10:27:32;13.27;;;3.00;;
15077;SDS011;7638;49.760;8.646;2023-02-01T10:29:34;10.90;;;3.13;;
15077;SDS011;7638;49.760;8.646;2023-02-01T10:32:02;14.47;;;3.33;;
15077;SDS011;7638;49.760;8.646;2023-02-01T10:34:30;4.90;;;2.40;;
15077;SDS011;7638;49.760;8.646;2023-02-01T10:39:23;8.40;;;3.10;;
15077;SDS011;7638;49.760;8.646;2023-02-01T10:41:49;10.17;;;3.10;;
15077;SDS011;7638;49.760;8.646;2023-02-01T10:44:17;16.63;;;3.73;;
15077;SDS011;7638;49.760;8.646;2023-02-01T10:46:43;9.33;;;3.07;;
15077;SDS011;7638;49.760;8.646;2023-02-01T10:49:52;10.27;;;3.47;;
15077;SDS011;7638;49.760;8.646;2023-02-01T10:54:35;8.93;;;1.90;;
15077;SDS011;7638;49.760;8.646;2023-02-01T10:57:03;9.33;;;2.03;;
15077;SDS011;7638;49.760;8.646;2023-02-01T10:59:32;8.80;;;2.27;;
15077;SDS011;7638;49.760;8.646;2023-02-01T11:02:02;3.37;;;1.90;;
15077;SDS011;7638;49.760;8.646;2023-02-01T11:04:33;9.13;;;2.80;;
15077;SDS011;7638;49.760;8.646;2023-02-01T11:09:33;9.60;;;1.93;;
15077;SDS011;7638;49.760;8.646;2023-02-01T11:12:00;8.47;;;2.60;;
15077;SDS011;7638;49.760;8.646;2023-02-01T11:14:39;9.73;;;2.27;;
15077;SDS011;7638;49.760;8.646;2023-02-01T11:19:46;10.57;;;2.60;;
15077;SDS011;7638;49.760;8.646;2023-02-01T11:22:12;7.17;;;2.70;;
15077;SDS011;7638;49.760;8.646;2023-02-01T11:24:39;5.40;;;1.83;;
15077;SDS011;7638;49.760;8.646;2023-02-01T11:27:12;8.43;;;1.83;;
15077;SDS011;7638;49.760;8.646;2023-02-01T11:29:40;9.27;;;2.23;;
15077;SDS011;7638;49.760;8.646;2023-02-01T11:32:12;10.17;;;2.53;;
15077;SDS011;7638;49.760;8.646;2023-02-01T11:37:21;8.07;;;1.97;;
15077;SDS011;7638;49.760;8.646;2023-02-01T11:39:56;9.47;;;2.90;;
15077;SDS011;7638;49.760;8.646;2023-02-01T11:42:23;9.17;;;2.53;;
15077;SDS011;7638;49.760;8.646;2023-02-01T11:44:49;11.70;;;2.60;;
15077;SDS011;7638;49.760;8.646;2023-02-01T11:49:44;6.87;;;2.27;;
15077;SDS011;7638;49.760;8.646;2023-02-01T11:57:31;7.57;;;2.13;;
15077;SDS011;7638;49.760;8.646;2023-02-01T12:10:44;4.90;;;2.27;;
15077;SDS011;7638;49.760;8.646;2023-02-01T12:15:41;4.63;;;2.27;;
15077;SDS011;7638;49.760;8.646;2023-02-01T12:33:30;11.07;;;2.10;;
15077;SDS011;7638;49.760;8.646;2023-02-01T12:43:39;11.83;;;2.47;;
15077;SDS011;7638;49.760;8.646;2023-02-01T12:46:52;5.10;;;2.40;;
15077;SDS011;7638;49.760;8.646;2023-02-01T12:51:43;4.70;;;2.30;;
15077;SDS011;7638;49.760;8.646;2023-02-01T12:54:17;6.27;;;2.50;;
15077;SDS011;7638;49.760;8.646;2023-02-01T12:56:46;11.20;;;2.20;;
15077;SDS011;7638;49.760;8.646;2023-02-01T12:59:21;5.67;;;1.50;;
15077;SDS011;7638;49.760;8.646;2023-02-01T13:01:51;10.97;;;2.50;;
15077;SDS011;7638;49.760;8.646;2023-02-01T13:09:49;3.50;;;1.37;;
15077;SDS011;7638;49.760;8.646;2023-02-01T13:17:12;5.23;;;2.27;;
15077;SDS011;7638;49.760;8.646;2023-02-01T13:19:45;7.77;;;2.37;;
15077;SDS011;7638;49.760;8.646;2023-02-01T13:22:23;6.53;;;2.13;;
15077;SDS011;7638;49.760;8.646;2023-02-01T13:24:52;8.20;;;1.97;;
15077;SDS011;7638;49.760;8.646;2023-02-01T13:27:20;3.40;;;2.03;;
15077;SDS011;7638;49.760;8.646;2023-02-01T13:29:55;13.03;;;2.23;;
15077;SDS011;7638;49.760;8.646;2023-02-01T13:35:18;9.70;;;2.17;;
15077;SDS011;7638;49.760;8.646;2023-02-01T13:40:36;9.20;;;1.73;;
15077;SDS011;7638;49.760;8.646;2023-02-01T13:43:10;15.30;;;2.60;;
15077;SDS011;7638;49.760;8.646;2023-02-01T13:45:41;6.60;;;2.20;;
15077;SDS011;7638;49.760;8.646;2023-02-01T13:48:14;6.83;;;2.03;;
15077;SDS011;7638;49.760;8.646;2023-02-01T13:50:43;5.67;;;2.10;;
15077;SDS011;7638;49.760;8.646;2023-02-01T13:55:43;12.47;;;2.47;;
15077;SDS011;7638;49.760;8.646;2023-02-01T13:58:15;7.57;;;2.00;;
15077;SDS011;7638;49.760;8.646;2023-02-01T14:00:42;10.20;;;2.83;;
15077;SDS011;7638;49.760;8.646;2023-02-01T14:23:39;12.00;;;2.47;;
15077;SDS011;7638;49.760;8.646;2023-02-01T14:26:07;6.03;;;2.03;;
15077;SDS011;7638;49.760;8.646;2023-02-01T14:28:35;9.27;;;2.10;;
15077;SDS011;7638;49.760;8.646;2023-02-01T14:31:03;6.07;;;2.50;;
15077;SDS011;7638;49.760;8.646;2023-02-01T14:33:40;8.63;;;2.90;;
15077;SDS011;7638;49.760;8.646;2023-02-01T14:36:08;10.20;;;2.07;;
15077;SDS011;7638;49.760;8.646;2023-02-01T14:38:35;8.77;;;2.77;;
15077;SDS011;7638;49.760;8.646;2023-02-01T14:44:30;20.03;;;4.03;;
15077;SDS011;7638;49.760;8.646;2023-02-01T14:49:21;10.37;;;2.33;;
15077;SDS011;7638;49.760;8.646;2023-02-01T14:51:48;12.83;;;2.93;;
15077;SDS011;7638;49.760;8.646;2023-02-01T14:54:14;8.20;;;2.63;;
15077;SDS011;7638;49.760;8.646;2023-02-01T14:56:40;6.87;;;2.77;;
15077;SDS011;7638;49.760;8.646;2023-02-01T14:59:08;5.53;;;2.50;;
15077;SDS011;7638;49.760;8.646;2023-02-01T15:01:36;14.33;;;2.47;;
15077;SDS011;7638;49.760;8.646;2023-02-01T15:08:58;8.03;;;2.17;;
15077;SDS011;7638;49.760;8.646;2023-02-01T15:11:25;16.90;;;3.03;;
15077;SDS011;7638;49.760;8.646;2023-02-01T15:13:51;9.03;;;2.13;;
15077;SDS011;7638;49.760;8.646;2023-02-01T15:16:19;3.50;;;2.03;;
15077;SDS011;7638;49.760;8.646;2023-02-01T15:18:47;11.93;;;2.43;;
15077;SDS011;7638;49.760;8.646;2023-02-01T15:21:20;7.30;;;2.00;;
15077;SDS011;7638;49.760;8.646;2023-02-01T15:23:47;4.37;;;1.57;;
15077;SDS011;7638;49.760;8.646;2023-02-01T15:26:27;3.97;;;2.00;;
15077;SDS011;7638;49.760;8.646;2023-02-01T15:28:53;10.17;;;2.37;;
15077;SDS011;7638;49.760;8.646;2023-02-01T15:31:32;2.60;;;1.30;;
15077;SDS011;7638;49.760;8.646;2023-02-01T15:33:59;3.97;;;2.00;;
15077;SDS011;7638;49.760;8.646;2023-02-01T15:36:25;16.27;;;2.47;;
15077;SDS011;7638;49.760;8.646;2023-02-01T15:41:43;5.20;;;1.87;;
15077;SDS011;7638;49.760;8.646;2023-02-01T15:44:24;7.03;;;2.60;;
15077;SDS011;7638;49.760;8.646;2023-02-01T15:46:53;4.50;;;1.80;;
15077;SDS011;7638;49.760;8.646;2023-02-01T15:49:40;7.03;;;2.00;;
15077;SDS011;7638;49.760;8.646;2023-02-01T15:52:11;13.83;;;1.83;;
15077;SDS011;7638;49.760;8.646;2023-02-01T15:54:43;10.13;;;2.17;;
15077;SDS011;7638;49.760;8.646;2023-02-01T15:57:12;7.77;;;2.00;;
15077;SDS011;7638;49.760;8.646;2023-02-01T15:59:44;9.33;;;2.33;;
15077;SDS011;7638;49.760;8.646;2023-02-01T16:08:04;10.30;;;2.20;;
15077;SDS011;7638;49.760;8.646;2023-02-01T16:10:37;11.10;;;2.33;;
15077;SDS011;7638;49.760;8.646;2023-02-01T16:13:04;8.33;;;1.67;;
15077;SDS011;7638;49.760;8.646;2023-02-01T16:15:30;10.80;;;2.30;;
15077;SDS011;7638;49.760;8.646;2023-02-01T16:17:56;5.67;;;2.30;;
15077;SDS011;7638;49.760;8.646;2023-02-01T16:20:22;8.03;;;2.47;;
15077;SDS011;7638;49.760;8.646;2023-02-01T16:22:48;12.40;;;2.60;;
15077;SDS011;7638;49.760;8.646;2023-02-01T16:25:14;8.87;;;2.17;;
15077;SDS011;7638;49.760;8.646;2023-02-01T16:27:40;9.10;;;2.07;;
15077;SDS011;7638;49.760;8.646;2023-02-01T16:30:06;5.00;;;2.07;;
15077;SDS011;7638;49.760;8.646;2023-02-01T16:32:37;10.57;;;1.90;;
15077;SDS011;7638;49.760;8.646;2023-02-01T16:35:04;7.33;;;2.33;;
15077;SDS011;7638;49.760;8.646;2023-02-01T16:37:30;6.90;;;2.10;;
15077;SDS011;7638;49.760;8.646;2023-02-01T16:39:58;7.27;;;2.27;;
15077;SDS011;7638;49.760;8.646;2023-02-01T16:42:24;14.80;;;2.53;;
15077;SDS011;7638;49.760;8.646;2023-02-01T16:44:50;7.73;;;2.13;;
15077;SDS011;7638;49.760;8.646;2023-02-01T16:47:17;4.10;;;1.70;;
15077;SDS011;7638;49.760;8.646;2023-02-01T16:49:43;5.70;;;2.10;;
15077;SDS011;7638;49.760;8.646;2023-02-01T16:52:13;4.97;;;1.97;;
15077;SDS011;7638;49.760;8.646;2023-02-01T16:54:40;5.50;;;1.77;;
15077;SDS011;7638;49.760;8.646;2023-02-01T16:57:10;11.23;;;2.17;;
15077;SDS011;7638;49.760;8.646;2023-02-01T16:59:36;8.13;;;1.97;;
15077;SDS011;7638;49.760;8.646;2023-02-01T17:02:20;10.07;;;3.13;;
15077;SDS011;7638;49.760;8.646;2023-02-01T17:04:47;12.13;;;2.53;;
15077;SDS011;7638;49.760;8.646;2023-02-01T17:07:14;7.83;;;2.27;;
15077;SDS011;7638;49.760;8.646;2023-02-01T17:09:41;10.20;;;2.37;;
15077;SDS011;7638;49.760;8.646;2023-02-01T17:12:09;8.33;;;2.40;;
15077;SDS011;7638;49.760;8.646;2023-02-01T17:14:39;3.67;;;1.90;;
15077;SDS011;7638;49.760;8.646;2023-02-01T17:17:07;12.03;;;2.80;;
15077;SDS011;7638;49.760;8.646;2023-02-01T17:19:33;9.17;;;2.33;;
15077;SDS011;7638;49.760;8.646;2023-02-01T17:21:59;11.63;;;3.03;;
15077;SDS011;7638;49.760;8.646;2023-02-01T17:24:27;13.30;;;3.00;;
15077;SDS011;7638;49.760;8.646;2023-02-01T17:26:53;16.43;;;2.17;;
15077;SDS011;7638;49.760;8.646;2023-02-01T17:29:19;8.67;;;2.60;;
15077;SDS011;7638;49.760;8.646;2023-02-01T17:31:47;8.13;;;2.33;;
15077;SDS011;7638;49.760;8.646;2023-02-01T17:34:13;6.17;;;2.77;;
15077;SDS011;7638;49.760;8.646;2023-02-01T17:36:41;7.67;;;2.50;;
15077;SDS011;7638;49.760;8.646;2023-02-01T17:39:08;12.33;;;2.37;;
15077;SDS011;7638;49.760;8.646;2023-02-01T17:41:34;7.53;;;2.27;;
15077;SDS011;7638;49.760;8.646;2023-02-01T17:44:01;7.60;;;2.03;;
15077;SDS011;7638;49.760;8.646;2023-02-01T17:46:27;9.03;;;2.93;;
15077;SDS011;7638;49.760;8.646;2023-02-01T17:48:53;12.53;;;2.43;;
15077;SDS011;7638;49.760;8.646;2023-02-01T17:51:21;9.77;;;2.63;;